sensor_id;sensor_type;location;lat;lon;timestamp;P1;durP1;ratioP1;P2;durP2;ratioP2
16320;SDS011;8269;50.990;4.494;2023-06-14T00:00:43;8.85;;;7.00;;
16320;SDS011;8269;50.990;4.494;2023-06-14T00:03:09;8.02;;;6.90;;
16320;SDS011;8269;50.990;4.494;2023-06-14T00:05:37;9.95;;;7.32;;
16320;SDS011;8269;50.990;4.494;2023-06-14T00:08:08;12.95;;;7.63;;
16320;SDS011;8269;50.990;4.494;2023-06-14T00:10:34;11.35;;;7.78;;
16320;SDS011;8269;50.990;4.494;2023-06-14T00:13:01;9.45;;;7.90;;
16320;SDS011;8269;50.990;4.494;2023-06-14T00:15:28;9.10;;;7.40;;
16320;SDS011;8269;50.990;4.494;2023-06-14T00:17:55;10.63;;;7.53;;
16320;SDS011;8269;50.990;4.494;2023-06-14T00:20:24;10.77;;;7.68;;
16320;SDS011;8269;50.990;4.494;2023-06-14T00:22:51;10.27;;;7.78;;
16320;SDS011;8269;50.990;4.494;2023-06-14T00:25:17;9.27;;;7.35;;
16320;SDS011;8269;50.990;4.494;2023-06-14T00:27:43;10.38;;;7.20;;
16320;SDS011;8269;50.990;4.494;2023-06-14T00:30:10;11.60;;;7.90;;
16320;SDS011;8269;50.990;4.494;2023-06-14T00:32:36;9.68;;;7.80;;
16320;SDS011;8269;50.990;4.494;2023-06-14T00:35:02;8.68;;;7.78;;
16320;SDS011;8269;50.990;4.494;2023-06-14T00:37:28;10.98;;;7.78;;
16320;SDS011;8269;50.990;4.494;2023-06-14T00:39:54;10.02;;;7.88;;
16320;SDS011;8269;50.990;4.494;2023-06-14T00:42:24;10.57;;;7.72;;
16320;SDS011;8269;50.990;4.494;2023-06-14T00:44:50;11.07;;;7.93;;
16320;SDS011;8269;50.990;4.494;2023-06-14T00:47:16;9.38;;;7.38;;
16320;SDS011;8269;50.990;4.494;2023-06-14T00:49:44;11.88;;;7.50;;
16320;SDS011;8269;50.990;4.494;2023-06-14T00:52:10;12.52;;;7.88;;
16320;SDS011;8269;50.990;4.494;2023-06-14T00:54:37;8.70;;;7.60;;
16320;SDS011;8269;50.990;4.494;2023-06-14T00:57:03;13.52;;;7.85;;
16320;SDS011;8269;50.990;4.494;2023-06-14T00:59:29;9.80;;;7.88;;
16320;SDS011;8269;50.990;4.494;2023-06-14T01:01:55;10.23;;;7.88;;
16320;SDS011;8269;50.990;4.494;2023-06-14T01:04:21;9.60;;;8.05;;
16320;SDS011;8269;50.990;4.494;2023-06-14T01:09:37;11.40;;;8.25;;
16320;SDS011;8269;50.990;4.494;2023-06-14T01:12:09;9.68;;;8.10;;
16320;SDS011;8269;50.990;4.494;2023-06-14T01:14:37;11.75;;;8.30;;
16320;SDS011;8269;50.990;4.494;2023-06-14T01:17:03;10.27;;;8.32;;
16320;SDS011;8269;50.990;4.494;2023-06-14T01:19:30;9.05;;;8.13;;
16320;SDS011;8269;50.990;4.494;2023-06-14T01:21:56;10.75;;;8.15;;
16320;SDS011;8269;50.990;4.494;2023-06-14T01:24:23;9.82;;;7.75;;
16320;SDS011;8269;50.990;4.494;2023-06-14T01:26:50;9.80;;;7.75;;
16320;SDS011;8269;50.990;4.494;2023-06-14T01:29:20;9.75;;;8.13;;
16320;SDS011;8269;50.990;4.494;2023-06-14T01:31:46;12.05;;;8.63;;
16320;SDS011;8269;50.990;4.494;2023-06-14T01:34:13;9.75;;;8.30;;
16320;SDS011;8269;50.990;4.494;2023-06-14T01:36:40;10.32;;;8.85;;
16320;SDS011;8269;50.990;4.494;2023-06-14T01:39:06;10.88;;;8.38;;
16320;SDS011;8269;50.990;4.494;2023-06-14T01:41:34;10.88;;;8.43;;
16320;SDS011;8269;50.990;4.494;2023-06-14T01:44:00;12.02;;;8.43;;
16320;SDS011;8269;50.990;4.494;2023-06-14T01:46:27;11.05;;;8.52;;
16320;SDS011;8269;50.990;4.494;2023-06-14T01:48:53;9.23;;;7.95;;
16320;SDS011;8269;50.990;4.494;2023-06-14T01:51:19;11.80;;;8.43;;
16320;SDS011;8269;50.990;4.494;2023-06-14T01:53:45;11.00;;;8.10;;
16320;SDS011;8269;50.990;4.494;2023-06-14T01:56:12;10.65;;;8.02;;
16320;SDS011;8269;50.990;4.494;2023-06-14T01:58:38;10.90;;;9.02;;
16320;SDS011;8269;50.990;4.494;2023-06-14T02:01:04;11.85;;;8.95;;
16320;SDS011;8269;50.990;4.494;2023-06-14T02:03:31;11.48;;;8.80;;
16320;SDS011;8269;50.990;4.494;2023-06-14T02:05:58;11.35;;;8.85;;
16320;SDS011;8269;50.990;4.494;2023-06-14T02:08:24;9.02;;;8.13;;
16320;SDS011;8269;50.990;4.494;2023-06-14T02:10:50;9.77;;;8.52;;
16320;SDS011;8269;50.990;4.494;2023-06-14T02:13:16;15.15;;;9.00;;
16320;SDS011;8269;50.990;4.494;2023-06-14T02:15:42;11.88;;;9.13;;
16320;SDS011;8269;50.990;4.494;2023-06-14T02:18:10;12.05;;;8.40;;
16320;SDS011;8269;50.990;4.494;2023-06-14T02:20:36;10.63;;;8.95;;
16320;SDS011;8269;50.990;4.494;2023-06-14T02:23:02;11.35;;;8.63;;
16320;SDS011;8269;50.990;4.494;2023-06-14T02:25:28;12.23;;;8.73;;
16320;SDS011;8269;50.990;4.494;2023-06-14T02:27:54;10.15;;;9.05;;
16320;SDS011;8269;50.990;4.494;2023-06-14T02:30:20;12.20;;;9.40;;
16320;SDS011;8269;50.990;4.494;2023-06-14T02:32:47;11.15;;;9.02;;
16320;SDS011;8269;50.990;4.494;2023-06-14T02:35:13;9.90;;;8.52;;
16320;SDS011;8269;50.990;4.494;2023-06-14T02:37:39;10.63;;;8.35;;
16320;SDS011;8269;50.990;4.494;2023-06-14T02:40:06;13.75;;;9.00;;
16320;SDS011;8269;50.990;4.494;2023-06-14T02:42:34;14.13;;;9.63;;
16320;SDS011;8269;50.990;4.494;2023-06-14T02:45:00;10.30;;;9.00;;
16320;SDS011;8269;50.990;4.494;2023-06-14T02:47:27;12.00;;;9.38;;
16320;SDS011;8269;50.990;4.494;2023-06-14T02:49:53;10.48;;;9.32;;
16320;SDS011;8269;50.990;4.494;2023-06-14T02:52:19;10.05;;;9.05;;
16320;SDS011;8269;50.990;4.494;2023-06-14T02:54:45;10.07;;;8.73;;
16320;SDS011;8269;50.990;4.494;2023-06-14T02:57:12;13.00;;;9.38;;
16320;SDS011;8269;50.990;4.494;2023-06-14T02:59:38;10.25;;;9.15;;
16320;SDS011;8269;50.990;4.494;2023-06-14T03:02:04;12.68;;;9.73;;
16320;SDS011;8269;50.990;4.494;2023-06-14T03:04:30;12.57;;;9.02;;
16320;SDS011;8269;50.990;4.494;2023-06-14T03:07:02;12.25;;;9.43;;
16320;SDS011;8269;50.990;4.494;2023-06-14T03:09:34;12.93;;;9.27;;
16320;SDS011;8269;50.990;4.494;2023-06-14T03:12:00;12.85;;;9.75;;
16320;SDS011;8269;50.990;4.494;2023-06-14T03:14:28;10.18;;;8.80;;
16320;SDS011;8269;50.990;4.494;2023-06-14T03:16:55;11.20;;;9.13;;
16320;SDS011;8269;50.990;4.494;2023-06-14T03:19:22;10.30;;;8.55;;
16320;SDS011;8269;50.990;4.494;2023-06-14T03:21:48;10.07;;;9.05;;
16320;SDS011;8269;50.990;4.494;2023-06-14T03:24:14;10.60;;;9.15;;
16320;SDS011;8269;50.990;4.494;2023-06-14T03:26:44;10.77;;;8.93;;
16320;SDS011;8269;50.990;4.494;2023-06-14T03:29:11;13.35;;;8.73;;
16320;SDS011;8269;50.990;4.494;2023-06-14T03:31:41;10.38;;;9.25;;
16320;SDS011;8269;50.990;4.494;2023-06-14T03:34:21;12.15;;;9.25;;
16320;SDS011;8269;50.990;4.494;2023-06-14T03:36:48;10.18;;;9.15;;
16320;SDS011;8269;50.990;4.494;2023-06-14T03:39:14;9.77;;;8.70;;
16320;SDS011;8269;50.990;4.494;2023-06-14T03:41:40;14.50;;;9.43;;
16320;SDS011;8269;50.990;4.494;2023-06-14T03:44:06;11.50;;;9.00;;
16320;SDS011;8269;50.990;4.494;2023-06-14T03:46:32;11.05;;;8.63;;
16320;SDS011;8269;50.990;4.494;2023-06-14T03:48:58;11.75;;;9.07;;
16320;SDS011;8269;50.990;4.494;2023-06-14T03:51:25;12.15;;;8.52;;
16320;SDS011;8269;50.990;4.494;2023-06-14T03:53:51;12.25;;;9.10;;
16320;SDS011;8269;50.990;4.494;2023-06-14T03:56:17;12.13;;;8.55;;
16320;SDS011;8269;50.990;4.494;2023-06-14T03:58:43;9.88;;;8.80;;
16320;SDS011;8269;50.990;4.494;2023-06-14T04:01:09;9.93;;;8.40;;
16320;SDS011;8269;50.990;4.494;2023-06-14T04:03:37;9.73;;;8.23;;
16320;SDS011;8269;50.990;4.494;2023-06-14T04:06:13;10.95;;;9.25;;
16320;SDS011;8269;50.990;4.494;2023-06-14T04:08:44;10.75;;;8.65;;
16320;SDS011;8269;50.990;4.494;2023-06-14T04:11:10;13.68;;;8.93;;
16320;SDS011;8269;50.990;4.494;2023-06-14T04:13:36;9.10;;;8.10;;
16320;SDS011;8269;50.990;4.494;2023-06-14T04:16:04;11.10;;;8.35;;
16320;SDS011;8269;50.990;4.494;2023-06-14T04:18:30;11.65;;;8.32;;
16320;SDS011;8269;50.990;4.494;2023-06-14T04:20:56;10.25;;;8.10;;
16320;SDS011;8269;50.990;4.494;2023-06-14T04:23:22;10.15;;;8.27;;
16320;SDS011;8269;50.990;4.494;2023-06-14T04:25:48;10.32;;;8.63;;
16320;SDS011;8269;50.990;4.494;2023-06-14T04:28:14;9.35;;;8.45;;
16320;SDS011;8269;50.990;4.494;2023-06-14T04:30:42;11.07;;;8.48;;
16320;SDS011;8269;50.990;4.494;2023-06-14T04:33:09;14.23;;;8.45;;
16320;SDS011;8269;50.990;4.494;2023-06-14T04:35:40;11.65;;;8.35;;
16320;SDS011;8269;50.990;4.494;2023-06-14T04:38:06;9.88;;;8.32;;
16320;SDS011;8269;50.990;4.494;2023-06-14T04:40:35;9.95;;;8.48;;
16320;SDS011;8269;50.990;4.494;2023-06-14T04:43:21;10.45;;;8.15;;
16320;SDS011;8269;50.990;4.494;2023-06-14T04:45:50;16.25;;;9.95;;
16320;SDS011;8269;50.990;4.494;2023-06-14T04:48:17;11.68;;;8.13;;
16320;SDS011;8269;50.990;4.494;2023-06-14T04:50:46;12.35;;;8.45;;
16320;SDS011;8269;50.990;4.494;2023-06-14T04:53:12;11.98;;;8.43;;
16320;SDS011;8269;50.990;4.494;2023-06-14T04:55:39;9.77;;;8.77;;
16320;SDS011;8269;50.990;4.494;2023-06-14T04:58:05;12.93;;;9.57;;
16320;SDS011;8269;50.990;4.494;2023-06-14T05:00:32;11.13;;;8.25;;
16320;SDS011;8269;50.990;4.494;2023-06-14T05:02:58;14.40;;;8.77;;
16320;SDS011;8269;50.990;4.494;2023-06-14T05:05:26;10.93;;;8.65;;
16320;SDS011;8269;50.990;4.494;2023-06-14T05:07:52;9.55;;;8.30;;
16320;SDS011;8269;50.990;4.494;2023-06-14T05:10:18;10.23;;;8.30;;
16320;SDS011;8269;50.990;4.494;2023-06-14T05:12:44;10.43;;;8.75;;
16320;SDS011;8269;50.990;4.494;2023-06-14T05:15:10;10.50;;;8.65;;
16320;SDS011;8269;50.990;4.494;2023-06-14T05:17:37;9.82;;;8.82;;
16320;SDS011;8269;50.990;4.494;2023-06-14T05:20:05;10.02;;;8.68;;
16320;SDS011;8269;50.990;4.494;2023-06-14T05:22:31;11.13;;;8.38;;
16320;SDS011;8269;50.990;4.494;2023-06-14T05:24:57;10.90;;;8.50;;
16320;SDS011;8269;50.990;4.494;2023-06-14T05:27:23;11.57;;;8.70;;
16320;SDS011;8269;50.990;4.494;2023-06-14T05:29:50;10.02;;;8.43;;
16320;SDS011;8269;50.990;4.494;2023-06-14T05:32:20;11.55;;;8.95;;
16320;SDS011;8269;50.990;4.494;2023-06-14T05:34:46;12.32;;;8.38;;
16320;SDS011;8269;50.990;4.494;2023-06-14T05:37:12;13.25;;;8.55;;
16320;SDS011;8269;50.990;4.494;2023-06-14T05:39:39;11.50;;;8.95;;
16320;SDS011;8269;50.990;4.494;2023-06-14T05:42:05;12.40;;;8.98;;
16320;SDS011;8269;50.990;4.494;2023-06-14T05:44:31;11.75;;;8.32;;
16320;SDS011;8269;50.990;4.494;2023-06-14T05:46:57;12.07;;;9.35;;
16320;SDS011;8269;50.990;4.494;2023-06-14T05:49:23;12.63;;;8.80;;
16320;SDS011;8269;50.990;4.494;2023-06-14T05:51:49;12.20;;;8.52;;
16320;SDS011;8269;50.990;4.494;2023-06-14T05:54:16;12.27;;;8.90;;
16320;SDS011;8269;50.990;4.494;2023-06-14T05:56:42;10.05;;;8.60;;
16320;SDS011;8269;50.990;4.494;2023-06-14T05:59:08;19.33;;;9.18;;
16320;SDS011;8269;50.990;4.494;2023-06-14T06:01:34;15.23;;;9.40;;
16320;SDS011;8269;50.990;4.494;2023-06-14T06:04:01;13.57;;;8.80;;
16320;SDS011;8269;50.990;4.494;2023-06-14T06:06:28;12.20;;;9.02;;
16320;SDS011;8269;50.990;4.494;2023-06-14T06:08:54;11.13;;;9.05;;
16320;SDS011;8269;50.990;4.494;2023-06-14T06:11:20;20.75;;;10.63;;
16320;SDS011;8269;50.990;4.494;2023-06-14T06:13:46;10.20;;;8.52;;
16320;SDS011;8269;50.990;4.494;2023-06-14T06:16:12;16.08;;;9.48;;
16320;SDS011;8269;50.990;4.494;2023-06-14T06:18:38;9.93;;;8.75;;
16320;SDS011;8269;50.990;4.494;2023-06-14T06:21:04;10.70;;;8.93;;
16320;SDS011;8269;50.990;4.494;2023-06-14T06:23:31;12.40;;;9.10;;
16320;SDS011;8269;50.990;4.494;2023-06-14T06:25:57;20.80;;;9.30;;
16320;SDS011;8269;50.990;4.494;2023-06-14T06:28:23;12.27;;;9.32;;
16320;SDS011;8269;50.990;4.494;2023-06-14T06:30:49;13.55;;;8.85;;
16320;SDS011;8269;50.990;4.494;2023-06-14T06:33:15;15.93;;;9.13;;
16320;SDS011;8269;50.990;4.494;2023-06-14T06:35:42;14.50;;;8.48;;
16320;SDS011;8269;50.990;4.494;2023-06-14T06:38:08;9.25;;;8.23;;
16320;SDS011;8269;50.990;4.494;2023-06-14T06:40:35;9.95;;;8.35;;
16320;SDS011;8269;50.990;4.494;2023-06-14T06:43:01;11.80;;;8.50;;
16320;SDS011;8269;50.990;4.494;2023-06-14T06:45:28;11.95;;;8.65;;
16320;SDS011;8269;50.990;4.494;2023-06-14T06:47:54;12.80;;;8.57;;
16320;SDS011;8269;50.990;4.494;2023-06-14T06:50:20;10.02;;;8.77;;
16320;SDS011;8269;50.990;4.494;2023-06-14T06:52:50;12.68;;;8.10;;
16320;SDS011;8269;50.990;4.494;2023-06-14T06:55:16;12.35;;;8.40;;
16320;SDS011;8269;50.990;4.494;2023-06-14T06:57:43;10.88;;;8.40;;
16320;SDS011;8269;50.990;4.494;2023-06-14T07:00:09;12.40;;;8.40;;
16320;SDS011;8269;50.990;4.494;2023-06-14T07:02:36;11.60;;;8.25;;
16320;SDS011;8269;50.990;4.494;2023-06-14T07:05:02;15.20;;;8.18;;
16320;SDS011;8269;50.990;4.494;2023-06-14T07:07:28;11.15;;;8.70;;
16320;SDS011;8269;50.990;4.494;2023-06-14T07:09:54;9.55;;;8.35;;
16320;SDS011;8269;50.990;4.494;2023-06-14T07:12:22;12.77;;;8.57;;
16320;SDS011;8269;50.990;4.494;2023-06-14T07:14:48;15.30;;;8.23;;
16320;SDS011;8269;50.990;4.494;2023-06-14T07:17:14;9.52;;;7.78;;
16320;SDS011;8269;50.990;4.494;2023-06-14T07:19:40;9.05;;;8.05;;
16320;SDS011;8269;50.990;4.494;2023-06-14T07:22:06;12.15;;;8.02;;
16320;SDS011;8269;50.990;4.494;2023-06-14T07:24:32;8.27;;;7.35;;
16320;SDS011;8269;50.990;4.494;2023-06-14T07:27:01;10.85;;;7.75;;
16320;SDS011;8269;50.990;4.494;2023-06-14T07:29:28;12.35;;;8.68;;
16320;SDS011;8269;50.990;4.494;2023-06-14T07:31:54;10.55;;;7.63;;
16320;SDS011;8269;50.990;4.494;2023-06-14T07:34:20;10.35;;;7.32;;
16320;SDS011;8269;50.990;4.494;2023-06-14T07:36:46;8.57;;;7.72;;
16320;SDS011;8269;50.990;4.494;2023-06-14T07:39:12;11.07;;;7.80;;
16320;SDS011;8269;50.990;4.494;2023-06-14T07:41:39;9.43;;;7.75;;
16320;SDS011;8269;50.990;4.494;2023-06-14T07:44:05;15.85;;;8.65;;
16320;SDS011;8269;50.990;4.494;2023-06-14T07:46:31;15.20;;;8.30;;
16320;SDS011;8269;50.990;4.494;2023-06-14T07:48:57;14.50;;;8.30;;
16320;SDS011;8269;50.990;4.494;2023-06-14T07:51:23;9.48;;;7.72;;
16320;SDS011;8269;50.990;4.494;2023-06-14T07:53:49;10.00;;;7.85;;
16320;SDS011;8269;50.990;4.494;2023-06-14T07:56:15;16.38;;;8.10;;
16320;SDS011;8269;50.990;4.494;2023-06-14T07:58:41;21.92;;;8.75;;
16320;SDS011;8269;50.990;4.494;2023-06-14T08:01:08;9.10;;;7.45;;
16320;SDS011;8269;50.990;4.494;2023-06-14T08:03:35;11.02;;;7.53;;
16320;SDS011;8269;50.990;4.494;2023-06-14T08:06:01;13.65;;;7.20;;
16320;SDS011;8269;50.990;4.494;2023-06-14T08:08:27;13.07;;;7.82;;
16320;SDS011;8269;50.990;4.494;2023-06-14T08:10:53;8.77;;;7.20;;
16320;SDS011;8269;50.990;4.494;2023-06-14T08:13:19;12.93;;;7.85;;
16320;SDS011;8269;50.990;4.494;2023-06-14T08:15:45;10.98;;;7.82;;
16320;SDS011;8269;50.990;4.494;2023-06-14T08:18:11;12.75;;;7.32;;
16320;SDS011;8269;50.990;4.494;2023-06-14T08:20:37;11.30;;;7.93;;
16320;SDS011;8269;50.990;4.494;2023-06-14T08:23:04;10.65;;;7.90;;
16320;SDS011;8269;50.990;4.494;2023-06-14T08:25:31;13.02;;;8.27;;
16320;SDS011;8269;50.990;4.494;2023-06-14T08:27:57;10.10;;;8.32;;
16320;SDS011;8269;50.990;4.494;2023-06-14T08:30:23;11.63;;;8.70;;
16320;SDS011;8269;50.990;4.494;2023-06-14T08:32:49;11.48;;;8.35;;
16320;SDS011;8269;50.990;4.494;2023-06-14T08:35:16;12.15;;;7.82;;
16320;SDS011;8269;50.990;4.494;2023-06-14T08:37:43;12.68;;;8.35;;
16320;SDS011;8269;50.990;4.494;2023-06-14T08:40:28;11.20;;;7.85;;
16320;SDS011;8269;50.990;4.494;2023-06-14T08:42:55;11.68;;;8.40;;
16320;SDS011;8269;50.990;4.494;2023-06-14T08:45:22;10.93;;;8.80;;
16320;SDS011;8269;50.990;4.494;2023-06-14T08:47:49;10.32;;;8.15;;
16320;SDS011;8269;50.990;4.494;2023-06-14T08:50:23;11.65;;;8.57;;
16320;SDS011;8269;50.990;4.494;2023-06-14T08:52:51;11.32;;;8.38;;
16320;SDS011;8269;50.990;4.494;2023-06-14T08:55:19;10.30;;;8.23;;
16320;SDS011;8269;50.990;4.494;2023-06-14T08:57:46;9.65;;;7.75;;
16320;SDS011;8269;50.990;4.494;2023-06-14T09:00:15;11.55;;;7.75;;
16320;SDS011;8269;50.990;4.494;2023-06-14T09:02:42;13.30;;;8.00;;
16320;SDS011;8269;50.990;4.494;2023-06-14T09:05:10;11.68;;;8.32;;
16320;SDS011;8269;50.990;4.494;2023-06-14T09:07:38;10.65;;;7.45;;
16320;SDS011;8269;50.990;4.494;2023-06-14T09:10:08;10.30;;;7.65;;
16320;SDS011;8269;50.990;4.494;2023-06-14T09:12:35;13.85;;;7.50;;
16320;SDS011;8269;50.990;4.494;2023-06-14T09:15:02;10.48;;;7.85;;
16320;SDS011;8269;50.990;4.494;2023-06-14T09:17:34;12.07;;;7.38;;
16320;SDS011;8269;50.990;4.494;2023-06-14T09:20:01;9.50;;;7.22;;
16320;SDS011;8269;50.990;4.494;2023-06-14T09:22:30;11.65;;;6.90;;
16320;SDS011;8269;50.990;4.494;2023-06-14T09:24:56;11.60;;;7.65;;
16320;SDS011;8269;50.990;4.494;2023-06-14T09:27:22;10.60;;;7.65;;
16320;SDS011;8269;50.990;4.494;2023-06-14T09:29:48;8.48;;;7.28;;
16320;SDS011;8269;50.990;4.494;2023-06-14T09:32:14;12.52;;;7.55;;
16320;SDS011;8269;50.990;4.494;2023-06-14T09:34:40;10.63;;;7.28;;
16320;SDS011;8269;50.990;4.494;2023-06-14T09:37:06;11.82;;;7.60;;
16320;SDS011;8269;50.990;4.494;2023-06-14T09:39:32;14.95;;;8.27;;
16320;SDS011;8269;50.990;4.494;2023-06-14T09:41:58;12.20;;;7.40;;
16320;SDS011;8269;50.990;4.494;2023-06-14T09:44:25;9.57;;;6.80;;
16320;SDS011;8269;50.990;4.494;2023-06-14T09:46:53;9.00;;;5.90;;
16320;SDS011;8269;50.990;4.494;2023-06-14T09:49:21;11.00;;;6.75;;
16320;SDS011;8269;50.990;4.494;2023-06-14T09:51:50;8.35;;;6.35;;
16320;SDS011;8269;50.990;4.494;2023-06-14T09:54:17;7.40;;;6.53;;
16320;SDS011;8269;50.990;4.494;2023-06-14T09:56:46;7.97;;;6.03;;
16320;SDS011;8269;50.990;4.494;2023-06-14T09:59:14;8.25;;;6.93;;
16320;SDS011;8269;50.990;4.494;2023-06-14T10:01:42;10.00;;;6.10;;
16320;SDS011;8269;50.990;4.494;2023-06-14T10:04:09;8.48;;;5.97;;
16320;SDS011;8269;50.990;4.494;2023-06-14T10:06:43;8.85;;;5.97;;
16320;SDS011;8269;50.990;4.494;2023-06-14T10:09:10;9.93;;;5.82;;
16320;SDS011;8269;50.990;4.494;2023-06-14T10:11:36;10.75;;;6.00;;
16320;SDS011;8269;50.990;4.494;2023-06-14T10:14:08;13.73;;;6.15;;
16320;SDS011;8269;50.990;4.494;2023-06-14T10:16:37;7.97;;;5.63;;
16320;SDS011;8269;50.990;4.494;2023-06-14T10:21:45;8.20;;;5.50;;
16320;SDS011;8269;50.990;4.494;2023-06-14T10:24:13;6.68;;;5.55;;
16320;SDS011;8269;50.990;4.494;2023-06-14T10:26:51;11.18;;;5.57;;
16320;SDS011;8269;50.990;4.494;2023-06-14T10:29:17;6.95;;;5.22;;
16320;SDS011;8269;50.990;4.494;2023-06-14T10:34:10;9.93;;;5.30;;
16320;SDS011;8269;50.990;4.494;2023-06-14T10:36:37;6.88;;;4.80;;
16320;SDS011;8269;50.990;4.494;2023-06-14T10:39:04;10.05;;;5.15;;
16320;SDS011;8269;50.990;4.494;2023-06-14T10:41:31;8.85;;;5.90;;
16320;SDS011;8269;50.990;4.494;2023-06-14T10:44:10;7.72;;;5.80;;
16320;SDS011;8269;50.990;4.494;2023-06-14T10:46:54;12.80;;;5.43;;
16320;SDS011;8269;50.990;4.494;2023-06-14T10:50:06;7.88;;;4.82;;
16320;SDS011;8269;50.990;4.494;2023-06-14T10:52:11;7.65;;;4.82;;
16320;SDS011;8269;50.990;4.494;2023-06-14T10:57:40;10.85;;;4.80;;
16320;SDS011;8269;50.990;4.494;2023-06-14T11:00:07;10.88;;;4.88;;
16320;SDS011;8269;50.990;4.494;2023-06-14T11:05:25;7.05;;;4.93;;
16320;SDS011;8269;50.990;4.494;2023-06-14T11:10:40;8.38;;;4.75;;
16320;SDS011;8269;50.990;4.494;2023-06-14T11:13:07;10.05;;;5.38;;
16320;SDS011;8269;50.990;4.494;2023-06-14T11:15:33;10.65;;;5.20;;
16320;SDS011;8269;50.990;4.494;2023-06-14T11:18:06;8.13;;;5.00;;
16320;SDS011;8269;50.990;4.494;2023-06-14T11:20:35;8.90;;;5.38;;
16320;SDS011;8269;50.990;4.494;2023-06-14T11:23:01;7.18;;;5.20;;
16320;SDS011;8269;50.990;4.494;2023-06-14T11:25:28;8.13;;;5.03;;
16320;SDS011;8269;50.990;4.494;2023-06-14T11:27:55;7.13;;;5.25;;
16320;SDS011;8269;50.990;4.494;2023-06-14T11:30:21;7.45;;;4.97;;
16320;SDS011;8269;50.990;4.494;2023-06-14T11:32:48;8.15;;;5.00;;
16320;SDS011;8269;50.990;4.494;2023-06-14T11:35:15;9.13;;;4.90;;
16320;SDS011;8269;50.990;4.494;2023-06-14T11:37:42;7.93;;;4.50;;
16320;SDS011;8269;50.990;4.494;2023-06-14T11:40:09;12.60;;;9.95;;
16320;SDS011;8269;50.990;4.494;2023-06-14T11:42:37;10.02;;;4.53;;
16320;SDS011;8269;50.990;4.494;2023-06-14T11:45:07;9.55;;;4.90;;
16320;SDS011;8269;50.990;4.494;2023-06-14T11:47:34;6.72;;;4.78;;
16320;SDS011;8269;50.990;4.494;2023-06-14T11:50:00;7.50;;;4.70;;
16320;SDS011;8269;50.990;4.494;2023-06-14T11:52:27;10.30;;;4.90;;
16320;SDS011;8269;50.990;4.494;2023-06-14T11:54:53;7.95;;;5.13;;
16320;SDS011;8269;50.990;4.494;2023-06-14T11:57:19;6.60;;;4.63;;
16320;SDS011;8269;50.990;4.494;2023-06-14T11:59:45;11.30;;;4.88;;
16320;SDS011;8269;50.990;4.494;2023-06-14T12:02:15;8.73;;;4.38;;
16320;SDS011;8269;50.990;4.494;2023-06-14T12:04:41;8.35;;;4.80;;
16320;SDS011;8269;50.990;4.494;2023-06-14T12:07:08;8.48;;;4.57;;
16320;SDS011;8269;50.990;4.494;2023-06-14T12:09:37;7.25;;;4.70;;
16320;SDS011;8269;50.990;4.494;2023-06-14T12:12:02;5.53;;;4.28;;
16320;SDS011;8269;50.990;4.494;2023-06-14T12:14:29;10.32;;;4.80;;
16320;SDS011;8269;50.990;4.494;2023-06-14T12:17:03;6.13;;;4.68;;
16320;SDS011;8269;50.990;4.494;2023-06-14T12:19:35;6.78;;;4.50;;
16320;SDS011;8269;50.990;4.494;2023-06-14T12:22:08;7.60;;;4.72;;
16320;SDS011;8269;50.990;4.494;2023-06-14T12:24:34;5.97;;;4.20;;
16320;SDS011;8269;50.990;4.494;2023-06-14T12:27:00;7.60;;;4.15;;
16320;SDS011;8269;50.990;4.494;2023-06-14T12:29:30;6.97;;;4.18;;
16320;SDS011;8269;50.990;4.494;2023-06-14T12:32:02;6.18;;;4.32;;
16320;SDS011;8269;50.990;4.494;2023-06-14T12:34:28;6.43;;;4.47;;
16320;SDS011;8269;50.990;4.494;2023-06-14T12:36:56;6.65;;;4.40;;
16320;SDS011;8269;50.990;4.494;2023-06-14T12:39:23;11.43;;;4.75;;
16320;SDS011;8269;50.990;4.494;2023-06-14T12:41:49;5.38;;;3.70;;
16320;SDS011;8269;50.990;4.494;2023-06-14T12:44:15;8.00;;;3.75;;
16320;SDS011;8269;50.990;4.494;2023-06-14T12:46:41;7.18;;;4.40;;
16320;SDS011;8269;50.990;4.494;2023-06-14T12:49:11;7.72;;;4.50;;
16320;SDS011;8269;50.990;4.494;2023-06-14T12:51:38;6.93;;;4.03;;
16320;SDS011;8269;50.990;4.494;2023-06-14T12:54:04;6.05;;;3.83;;
16320;SDS011;8269;50.990;4.494;2023-06-14T12:56:30;6.47;;;3.83;;
16320;SDS011;8269;50.990;4.494;2023-06-14T12:58:56;8.18;;;3.80;;
16320;SDS011;8269;50.990;4.494;2023-06-14T13:01:22;6.28;;;3.70;;
16320;SDS011;8269;50.990;4.494;2023-06-14T13:03:48;7.00;;;3.58;;
16320;SDS011;8269;50.990;4.494;2023-06-14T13:06:20;8.90;;;3.83;;
16320;SDS011;8269;50.990;4.494;2023-06-14T13:08:47;5.32;;;3.53;;
16320;SDS011;8269;50.990;4.494;2023-06-14T13:11:14;5.55;;;3.33;;
16320;SDS011;8269;50.990;4.494;2023-06-14T13:13:40;6.20;;;2.92;;
16320;SDS011;8269;50.990;4.494;2023-06-14T13:16:05;5.82;;;3.25;;
16320;SDS011;8269;50.990;4.494;2023-06-14T13:18:31;5.15;;;3.05;;
16320;SDS011;8269;50.990;4.494;2023-06-14T13:20:57;5.57;;;3.10;;
16320;SDS011;8269;50.990;4.494;2023-06-14T13:23:23;6.32;;;3.00;;
16320;SDS011;8269;50.990;4.494;2023-06-14T13:25:49;8.98;;;3.25;;
16320;SDS011;8269;50.990;4.494;2023-06-14T13:28:16;5.20;;;2.85;;
16320;SDS011;8269;50.990;4.494;2023-06-14T13:30:42;6.75;;;3.10;;
16320;SDS011;8269;50.990;4.494;2023-06-14T13:33:08;5.25;;;2.90;;
16320;SDS011;8269;50.990;4.494;2023-06-14T13:35:33;3.55;;;2.42;;
16320;SDS011;8269;50.990;4.494;2023-06-14T13:37:59;3.78;;;2.35;;
16320;SDS011;8269;50.990;4.494;2023-06-14T13:40:28;6.93;;;2.40;;
16320;SDS011;8269;50.990;4.494;2023-06-14T13:42:54;3.53;;;2.30;;
16320;SDS011;8269;50.990;4.494;2023-06-14T13:45:19;4.22;;;2.20;;
16320;SDS011;8269;50.990;4.494;2023-06-14T13:47:45;4.13;;;2.22;;
16320;SDS011;8269;50.990;4.494;2023-06-14T13:50:13;4.10;;;2.10;;
16320;SDS011;8269;50.990;4.494;2023-06-14T13:52:39;6.03;;;2.20;;
16320;SDS011;8269;50.990;4.494;2023-06-14T13:55:05;7.25;;;2.20;;
16320;SDS011;8269;50.990;4.494;2023-06-14T13:57:31;4.00;;;1.95;;
16320;SDS011;8269;50.990;4.494;2023-06-14T13:59:58;4.82;;;2.00;;
16320;SDS011;8269;50.990;4.494;2023-06-14T14:02:26;3.72;;;1.70;;
16320;SDS011;8269;50.990;4.494;2023-06-14T14:04:54;3.42;;;1.80;;
16320;SDS011;8269;50.990;4.494;2023-06-14T14:07:20;7.53;;;2.15;;
16320;SDS011;8269;50.990;4.494;2023-06-14T14:09:48;4.63;;;2.17;;
16320;SDS011;8269;50.990;4.494;2023-06-14T14:12:14;4.82;;;2.03;;
16320;SDS011;8269;50.990;4.494;2023-06-14T14:14:40;4.93;;;2.28;;
16320;SDS011;8269;50.990;4.494;2023-06-14T14:17:06;4.15;;;2.00;;
16320;SDS011;8269;50.990;4.494;2023-06-14T14:19:32;3.10;;;1.90;;
16320;SDS011;8269;50.990;4.494;2023-06-14T14:21:58;3.38;;;2.30;;
16320;SDS011;8269;50.990;4.494;2023-06-14T14:24:24;4.57;;;1.92;;
16320;SDS011;8269;50.990;4.494;2023-06-14T14:26:51;4.57;;;2.20;;
16320;SDS011;8269;50.990;4.494;2023-06-14T14:29:18;5.13;;;2.28;;
16320;SDS011;8269;50.990;4.494;2023-06-14T14:31:48;4.47;;;2.10;;
16320;SDS011;8269;50.990;4.494;2023-06-14T14:34:14;3.45;;;2.30;;
16320;SDS011;8269;50.990;4.494;2023-06-14T14:36:40;4.10;;;2.40;;
16320;SDS011;8269;50.990;4.494;2023-06-14T14:39:07;3.78;;;2.40;;
16320;SDS011;8269;50.990;4.494;2023-06-14T14:41:33;8.82;;;2.17;;
16320;SDS011;8269;50.990;4.494;2023-06-14T14:44:00;5.82;;;2.20;;
16320;SDS011;8269;50.990;4.494;2023-06-14T14:46:26;4.32;;;2.40;;
16320;SDS011;8269;50.990;4.494;2023-06-14T14:48:53;8.52;;;2.85;;
16320;SDS011;8269;50.990;4.494;2023-06-14T14:51:19;5.30;;;2.42;;
16320;SDS011;8269;50.990;4.494;2023-06-14T14:53:45;3.75;;;2.30;;
16320;SDS011;8269;50.990;4.494;2023-06-14T14:56:11;4.72;;;2.75;;
16320;SDS011;8269;50.990;4.494;2023-06-14T14:58:37;5.07;;;2.20;;
16320;SDS011;8269;50.990;4.494;2023-06-14T15:01:03;6.55;;;2.38;;
16320;SDS011;8269;50.990;4.494;2023-06-14T15:03:30;5.88;;;2.47;;
16320;SDS011;8269;50.990;4.494;2023-06-14T15:05:56;7.20;;;2.40;;
16320;SDS011;8269;50.990;4.494;2023-06-14T15:08:22;5.75;;;2.53;;